createdAt,value
2018-06-20T00:00:30.501Z,64.70
2018-06-20T00:03:04.404Z,64.70
2018-06-20T00:05:38.836Z,64.60
2018-06-20T00:08:12.914Z,64.60
2018-06-20T00:10:46.968Z,64.10
2018-06-20T00:13:20.756Z,64.10
2018-06-20T00:15:54.473Z,64.20
2018-06-20T00:18:28.482Z,64.00
2018-06-20T00:21:02.435Z,63.90
2018-06-20T00:23:36.122Z,64.10
2018-06-20T00:26:09.958Z,64.20
2018-06-20T00:28:44.475Z,64.10
2018-06-20T00:33:50.901Z,64.10
2018-06-20T00:36:25.918Z,63.70
2018-06-20T00:38:59.671Z,63.80
2018-06-20T00:41:33.928Z,63.90
2018-06-20T00:44:08.005Z,64.00
2018-06-20T00:46:42.739Z,63.70
2018-06-20T00:49:17.763Z,63.80
2018-06-20T00:51:51.966Z,63.80
2018-06-20T00:54:26.074Z,63.80
2018-06-20T00:57:00.528Z,63.40
2018-06-20T00:59:34.822Z,63.10
2018-06-20T01:02:39.460Z,62.90
2018-06-20T01:05:13.838Z,62.90
2018-06-20T01:07:48.450Z,63.00
2018-06-20T01:10:22.519Z,63.20
2018-06-20T01:12:57.362Z,63.00
2018-06-20T01:18:03.938Z,62.70
2018-06-20T01:20:38.150Z,62.40
2018-06-20T01:23:13.144Z,62.70
2018-06-20T01:25:50.786Z,62.70
2018-06-20T01:28:25.517Z,62.50
2018-06-20T01:30:59.590Z,62.50
2018-06-20T01:33:34.726Z,62.80
2018-06-20T01:36:08.568Z,63.10
2018-06-20T01:38:44.827Z,63.20
2018-06-20T01:41:18.504Z,63.40
2018-06-20T01:43:58.285Z,62.90
2018-06-20T01:46:33.278Z,62.30
2018-06-20T01:49:07.362Z,62.30
2018-06-20T01:51:40.748Z,62.50
2018-06-20T01:54:17.131Z,62.10
2018-06-20T01:56:54.545Z,62.30
2018-06-20T01:59:29.142Z,62.00
2018-06-20T02:02:02.862Z,62.00
2018-06-20T02:04:36.590Z,61.80
2018-06-20T02:07:11.165Z,61.20
2018-06-20T02:09:44.662Z,61.00
2018-06-20T02:12:19.531Z,61.20
2018-06-20T02:14:53.354Z,60.70
2018-06-20T02:17:27.289Z,60.80
2018-06-20T02:20:02.884Z,60.90
2018-06-20T02:22:37.025Z,60.60
2018-06-20T02:25:11.113Z,60.30
2018-06-20T02:27:45.211Z,60.60
2018-06-20T02:30:19.221Z,60.40
2018-06-20T02:32:53.570Z,60.10
2018-06-20T02:35:27.457Z,59.70
2018-06-20T02:38:01.299Z,59.30
2018-06-20T02:40:38.607Z,59.20
2018-06-20T02:43:12.650Z,59.00
2018-06-20T02:48:18.935Z,58.20
2018-06-20T02:50:53.218Z,58.00
2018-06-20T02:53:26.852Z,58.20
2018-06-20T02:56:01.072Z,59.10
2018-06-20T02:58:36.340Z,58.20
2018-06-20T03:01:10.096Z,57.90
2018-06-20T03:06:16.577Z,58.30
2018-06-20T03:08:53.944Z,57.40
2018-06-20T03:11:27.885Z,57.30
2018-06-20T03:14:01.711Z,56.90
2018-06-20T03:16:35.463Z,57.00
2018-06-20T03:19:09.165Z,57.00
2018-06-20T03:21:42.870Z,56.90
2018-06-20T03:24:16.655Z,56.90
2018-06-20T03:26:50.592Z,57.00
2018-06-20T03:29:24.961Z,57.00
2018-06-20T03:31:58.936Z,57.10
2018-06-20T03:34:32.580Z,56.60
2018-06-20T03:37:06.043Z,56.80
2018-06-20T03:39:39.521Z,56.20
2018-06-20T03:42:14.340Z,56.10
2018-06-20T03:44:48.491Z,55.90
2018-06-20T03:52:27.500Z,55.30
2018-06-20T03:55:01.707Z,54.70
2018-06-20T03:57:35.959Z,54.50
2018-06-20T04:00:10.065Z,54.60
2018-06-20T04:41:44.749Z,54.10
2018-06-20T04:44:19.845Z,53.70
2018-06-20T04:49:27.487Z,54.70
2018-06-20T04:52:01.505Z,54.00
2018-06-20T04:54:35.659Z,53.90
2018-06-20T04:57:09.559Z,53.40
2018-06-20T04:59:43.676Z,53.00
2018-06-20T05:04:51.232Z,53.40
2018-06-20T05:07:25.605Z,52.20
2018-06-20T05:09:59.947Z,51.80
2018-06-20T05:12:34.320Z,51.00
2018-06-20T05:15:08.341Z,51.10
2018-06-20T05:17:42.494Z,51.20
2018-06-20T05:20:16.379Z,51.00
2018-06-20T05:22:50.873Z,51.20
2018-06-20T05:25:24.747Z,50.90
2018-06-20T05:30:32.928Z,51.00
2018-06-20T05:33:07.273Z,50.40
2018-06-20T05:35:41.140Z,50.30
2018-06-20T05:38:15.438Z,50.80
2018-06-20T05:40:50.245Z,49.50
2018-06-20T05:45:58.488Z,49.40
2018-06-20T05:48:32.765Z,48.90
2018-06-20T05:51:06.708Z,49.10
2018-06-20T05:53:41.133Z,48.90
2018-06-20T05:56:14.759Z,49.10
2018-06-20T05:58:49.569Z,49.30
2018-06-20T06:01:23.514Z,49.10
2018-06-20T06:03:57.259Z,49.20
2018-06-20T06:06:31.800Z,49.10
2018-06-20T06:09:05.786Z,48.80
2018-06-20T06:11:39.982Z,48.80
2018-06-20T06:14:14.457Z,48.40
2018-06-20T06:16:48.524Z,48.30
2018-06-20T06:19:22.738Z,48.30
2018-06-20T06:21:56.805Z,48.30
2018-06-20T06:24:31.473Z,48.50
2018-06-20T06:27:05.690Z,47.90
2018-06-20T06:29:39.608Z,48.00
2018-06-20T06:32:13.152Z,48.20
2018-06-20T06:34:48.089Z,47.90
2018-06-20T06:37:22.173Z,48.00
2018-06-20T06:39:56.329Z,47.90
2018-06-20T06:42:30.669Z,47.90
2018-06-20T06:45:04.564Z,47.80
2018-06-20T06:47:39.984Z,48.10
2018-06-20T06:50:14.599Z,47.70
2018-06-20T06:52:48.980Z,47.00
2018-06-20T06:55:24.142Z,47.70
2018-06-20T06:57:59.979Z,47.50
2018-06-20T07:03:06.564Z,48.10
2018-06-20T07:05:40.629Z,48.10
2018-06-20T07:08:15.240Z,48.00
2018-06-20T07:10:49.005Z,48.20
2018-06-20T07:13:23.416Z,48.40
2018-06-20T07:16:00.355Z,48.30
2018-06-20T07:18:34.306Z,48.40
2018-06-20T07:21:08.550Z,48.00
2018-06-20T07:23:45.278Z,47.80
2018-06-20T07:26:20.118Z,47.90
2018-06-20T07:28:54.791Z,48.00
2018-06-20T07:34:04.187Z,48.00
2018-06-20T07:36:38.588Z,47.80
2018-06-20T07:39:14.077Z,47.40
2018-06-20T07:41:47.997Z,47.70
2018-06-20T07:44:22.157Z,47.90
2018-06-20T07:46:55.984Z,48.20
2018-06-20T07:49:30.888Z,48.50
2018-06-20T07:52:06.028Z,48.80
2018-06-20T07:54:39.947Z,49.20
2018-06-20T07:57:14.542Z,49.30
2018-06-20T08:03:35.517Z,49.10
2018-06-20T08:06:13.589Z,49.10
2018-06-20T08:08:51.680Z,49.50
2018-06-20T08:11:30.180Z,48.70
2018-06-20T08:14:08.324Z,48.90
2018-06-20T08:16:46.291Z,49.10
2018-06-20T08:19:23.992Z,48.60
2018-06-20T08:21:58.981Z,48.90
2018-06-20T08:24:34.081Z,48.90
2018-06-20T08:27:08.649Z,48.90
2018-06-20T08:29:43.673Z,49.00
2018-06-20T08:32:19.225Z,49.30
2018-06-20T08:37:26.975Z,49.70
2018-06-20T08:40:01.100Z,49.80
2018-06-20T08:42:36.002Z,49.80
2018-06-20T08:45:11.080Z,49.90
2018-06-20T08:47:45.928Z,50.00
2018-06-20T08:50:21.748Z,49.60
2018-06-20T08:52:56.233Z,49.80
2018-06-20T08:55:31.357Z,49.40
2018-06-20T08:58:05.517Z,49.60
2018-06-20T09:00:43.701Z,49.70
2018-06-20T09:03:17.754Z,49.60
2018-06-20T09:05:57.109Z,49.50
2018-06-20T09:08:35.963Z,49.30
2018-06-20T09:11:14.344Z,49.10
2018-06-20T09:13:51.867Z,49.30
2018-06-20T09:19:06.480Z,49.30
2018-06-20T09:21:41.461Z,49.20
2018-06-20T09:24:16.903Z,49.30
2018-06-20T09:29:22.799Z,49.30
2018-06-20T09:31:57.311Z,49.00
2018-06-20T09:34:31.326Z,49.00
2018-06-20T09:42:10.177Z,49.20
2018-06-20T09:47:16.640Z,48.40
2018-06-20T09:49:52.275Z,48.40
2018-06-20T09:52:27.499Z,48.50
2018-06-20T09:55:01.229Z,48.50
2018-06-20T09:57:35.763Z,48.50
2018-06-20T10:00:13.293Z,48.60
2018-06-20T10:02:52.483Z,48.60
2018-06-20T10:08:06.904Z,48.70
2018-06-20T10:10:45.132Z,49.30
2018-06-20T10:13:20.491Z,49.30
2018-06-20T10:15:54.205Z,49.30
2018-06-20T10:18:28.126Z,49.40
2018-06-20T10:23:34.182Z,50.20
2018-06-20T10:26:07.501Z,49.80
2018-06-20T10:28:42.651Z,50.10
2018-06-20T10:31:16.270Z,50.60
2018-06-20T10:33:50.421Z,50.00
2018-06-20T10:36:24.246Z,50.30
2018-06-20T10:38:58.324Z,50.50
2018-06-20T10:41:38.931Z,50.70
2018-06-20T10:49:27.252Z,50.90
2018-06-20T10:52:01.093Z,50.70
2018-06-20T10:54:36.214Z,50.50
2018-06-20T10:57:13.925Z,50.60
2018-06-20T11:00:52.818Z,50.70
2018-06-20T11:03:31.159Z,50.80
2018-06-20T11:13:55.569Z,51.20
2018-06-20T11:16:29.985Z,51.90
2018-06-20T11:19:03.901Z,51.40
2018-06-20T11:21:38.024Z,51.30
2018-06-20T11:24:12.079Z,50.90
2018-06-20T11:26:47.453Z,50.90
2018-06-20T11:29:21.514Z,50.90
2018-06-20T11:31:55.381Z,51.10
2018-06-20T11:34:29.728Z,51.30
2018-06-20T11:37:03.830Z,51.20
2018-06-20T11:39:38.984Z,50.90
2018-06-20T11:42:13.078Z,50.70
2018-06-20T11:44:47.392Z,50.60
2018-06-20T11:47:25.732Z,50.70
2018-06-20T11:53:09.001Z,50.40
2018-06-20T11:55:47.812Z,50.70
2018-06-20T11:58:25.701Z,51.20
2018-06-20T12:01:05.380Z,51.40
2018-06-20T12:03:44.023Z,51.70
2018-06-20T12:06:22.940Z,51.90
2018-06-20T12:09:00.867Z,52.10
2018-06-20T12:14:15.023Z,52.20
2018-06-20T12:19:28.660Z,52.20
2018-06-20T12:22:06.823Z,52.10
2018-06-20T12:24:45.127Z,52.10
2018-06-20T12:27:22.934Z,52.10
2018-06-20T12:30:01.731Z,52.20
2018-06-20T12:32:39.587Z,52.40
2018-06-20T12:35:17.852Z,53.10
2018-06-20T12:37:55.694Z,52.60
2018-06-20T12:40:33.640Z,52.70
2018-06-20T12:43:11.513Z,52.60
2018-06-20T12:48:19.183Z,52.90
2018-06-20T12:50:53.382Z,53.00
2018-06-20T12:53:27.612Z,53.10
2018-06-20T12:56:02.848Z,53.30
2018-06-20T12:58:36.756Z,53.30
2018-06-20T13:01:10.703Z,53.20
2018-06-20T13:03:44.437Z,53.30
2018-06-20T13:06:19.276Z,53.40
2018-06-20T13:08:53.413Z,53.40
2018-06-20T13:11:27.453Z,53.40
2018-06-20T13:14:01.108Z,53.40
2018-06-20T13:16:36.185Z,53.40
2018-06-20T13:19:10.065Z,53.30
2018-06-20T13:21:44.263Z,53.20
2018-06-20T13:24:17.957Z,53.20
2018-06-20T13:26:51.913Z,53.10
2018-06-20T13:29:26.009Z,53.10
2018-06-20T13:32:03.198Z,53.10
2018-06-20T13:34:41.122Z,53.00
2018-06-20T13:37:19.067Z,53.00
2018-06-20T13:39:56.862Z,53.00
2018-06-20T13:42:34.907Z,53.10
2018-06-20T13:45:13.215Z,53.00
2018-06-20T13:47:50.537Z,53.00
2018-06-20T13:52:57.329Z,53.20
2018-06-20T13:55:31.385Z,53.10
2018-06-20T13:58:07.401Z,53.30
2018-06-20T14:03:15.079Z,53.90
2018-06-20T14:05:48.666Z,55.00
2018-06-20T14:08:22.413Z,55.40
2018-06-20T14:10:56.850Z,55.70
2018-06-20T14:16:03.192Z,56.00
2018-06-20T14:18:37.143Z,56.00
2018-06-20T14:41:08.669Z,56.30
2018-06-20T14:43:46.811Z,57.70
2018-06-20T14:46:22.909Z,58.00
2018-06-20T14:48:58.404Z,58.20
2018-06-20T14:51:32.071Z,58.50
2018-06-20T14:54:06.497Z,58.40
2018-06-20T14:56:41.728Z,58.30
2018-06-20T14:59:17.052Z,58.30
2018-06-20T15:01:51.227Z,58.20
2018-06-20T15:04:26.888Z,58.10
2018-06-20T15:07:00.747Z,58.00
2018-06-20T15:09:34.816Z,57.70
2018-06-20T15:12:09.291Z,57.80
2018-06-20T15:14:43.093Z,57.70
2018-06-20T15:17:21.777Z,57.70
2018-06-20T15:19:55.797Z,57.80
2018-06-20T15:22:33.604Z,57.70
2018-06-20T15:25:07.512Z,57.80
2018-06-20T15:28:45.682Z,57.80
2018-06-20T15:31:23.397Z,58.00
2018-06-20T15:34:01.926Z,57.90
2018-06-20T15:36:40.001Z,57.80
2018-06-20T15:39:14.755Z,57.50
2018-06-20T15:41:48.552Z,57.50
2018-06-20T15:44:22.974Z,57.20
2018-06-20T15:46:56.791Z,57.10
2018-06-20T15:49:31.525Z,56.80
2018-06-20T15:52:05.350Z,56.80
2018-06-20T15:54:39.521Z,56.80
2018-06-20T15:57:13.592Z,56.90
2018-06-20T15:59:51.280Z,56.80
2018-06-20T16:02:25.621Z,56.80
2018-06-20T16:04:59.723Z,56.90
2018-06-20T16:07:34.356Z,56.90
2018-06-20T16:10:10.454Z,56.90
2018-06-20T16:12:44.811Z,57.60
2018-06-20T16:15:19.950Z,57.00
2018-06-20T16:17:54.032Z,57.70
2018-06-20T16:20:32.196Z,57.00
2018-06-20T16:23:10.081Z,56.80
2018-06-20T16:25:48.020Z,56.50
2018-06-20T16:28:26.042Z,56.20
2018-06-20T16:30:59.964Z,55.90
2018-06-20T16:33:33.701Z,55.70
2018-06-20T16:36:07.471Z,55.40
2018-06-20T16:38:40.981Z,55.30
2018-06-20T16:41:15.016Z,55.20
2018-06-20T16:43:49.253Z,55.10
2018-06-20T16:48:56.387Z,54.80
2018-06-20T16:51:30.336Z,54.80
2018-06-20T16:54:04.465Z,54.60
2018-06-20T16:56:38.981Z,54.50
2018-06-20T16:59:13.410Z,54.60
2018-06-20T17:01:52.166Z,54.60
2018-06-20T17:04:25.922Z,54.40
2018-06-20T17:07:00.053Z,54.50
2018-06-20T17:09:33.802Z,55.00
2018-06-20T17:12:11.670Z,55.50
2018-06-20T17:14:49.672Z,55.90
2018-06-20T17:17:27.464Z,56.30
2018-06-20T17:20:04.523Z,56.50
2018-06-20T17:22:43.537Z,56.70
2018-06-20T17:25:47.833Z,56.80
2018-06-20T17:28:21.646Z,56.90
2018-06-20T17:30:55.456Z,56.90
2018-06-20T17:33:29.685Z,57.20
2018-06-20T17:36:03.662Z,57.50
2018-06-20T17:38:38.820Z,57.60
2018-06-20T17:41:13.778Z,58.40
2018-06-20T17:43:47.824Z,57.70
2018-06-20T17:46:22.950Z,57.90
2018-06-20T17:48:57.887Z,58.00
2018-06-20T17:54:03.948Z,57.90
2018-06-20T17:56:38.210Z,58.00
2018-06-20T17:59:12.398Z,57.70
2018-06-20T18:04:25.023Z,57.60
2018-06-20T18:09:06.458Z,58.20
2018-06-20T18:14:20.795Z,57.80
2018-06-20T18:17:00.984Z,57.90
2018-06-20T18:19:34.951Z,57.60
2018-06-20T18:22:08.626Z,57.60
2018-06-20T18:24:43.026Z,57.50
2018-06-20T18:27:16.600Z,57.40
2018-06-20T18:29:50.579Z,57.50
2018-06-20T18:32:24.928Z,57.50
2018-06-20T18:34:58.829Z,57.30
2018-06-20T18:37:33.315Z,57.30
2018-06-20T18:40:09.036Z,57.40
2018-06-20T18:42:43.026Z,57.50
2018-06-20T18:45:16.968Z,57.50
2018-06-20T18:47:54.970Z,57.60
2018-06-20T18:50:28.701Z,57.70
2018-06-20T18:53:03.250Z,57.80
2018-06-20T18:55:36.775Z,57.80
2018-06-20T19:00:51.011Z,57.60
2018-06-20T19:03:29.177Z,57.50
2018-06-20T19:06:08.858Z,57.80
2018-06-20T19:08:46.767Z,57.90
2018-06-20T19:43:59.044Z,57.50
2018-06-20T19:46:32.976Z,58.20
2018-06-20T19:49:08.001Z,61.00
2018-06-20T19:54:14.486Z,60.70
2018-06-20T19:56:50.817Z,60.30
2018-06-20T19:59:24.881Z,59.90
2018-06-20T20:01:58.943Z,59.70
2018-06-20T20:04:32.801Z,59.50
2018-06-20T20:07:07.410Z,59.40
2018-06-20T20:09:41.444Z,59.20
2018-06-20T20:12:15.955Z,59.10
2018-06-20T20:14:50.042Z,59.10
2018-06-20T20:17:23.769Z,59.10
2018-06-20T20:22:31.077Z,59.00
2018-06-20T20:25:04.861Z,58.80
2018-06-20T20:30:10.998Z,58.80
2018-06-20T20:32:51.056Z,58.80
2018-06-20T20:35:25.242Z,58.70
2018-06-20T20:37:59.339Z,58.50
2018-06-20T20:43:06.227Z,58.70
2018-06-20T20:48:13.404Z,58.80
2018-06-20T20:53:19.836Z,59.50
2018-06-20T20:55:53.591Z,58.70
2018-06-20T20:58:27.779Z,58.60
2018-06-20T21:01:01.761Z,58.70
2018-06-20T21:03:35.790Z,58.70
2018-06-20T21:06:09.962Z,58.70
2018-06-20T21:08:45.255Z,58.50
2018-06-20T21:11:19.408Z,58.60
2018-06-20T21:13:53.478Z,58.60
2018-06-20T21:16:27.397Z,58.70
2018-06-20T21:19:02.259Z,58.60
2018-06-20T21:21:35.752Z,58.60
2018-06-20T21:24:09.379Z,58.60
2018-06-20T21:29:15.719Z,58.70
2018-06-20T21:31:49.355Z,58.70
2018-06-20T21:36:55.676Z,58.60
2018-06-20T21:39:30.108Z,58.60
2018-06-20T21:42:04.113Z,58.50
2018-06-20T21:44:37.915Z,58.50
2018-06-20T21:47:12.233Z,58.70
2018-06-20T21:49:46.384Z,58.80
2018-06-20T21:52:20.292Z,58.90
2018-06-20T21:54:53.946Z,58.90
2018-06-20T21:57:27.997Z,58.90
2018-06-20T22:00:01.651Z,58.80
2018-06-20T22:02:35.750Z,58.90
2018-06-20T22:05:09.808Z,59.00
2018-06-20T22:07:43.722Z,59.10
2018-06-20T22:10:18.819Z,59.10
2018-06-20T22:12:54.026Z,59.10
2018-06-20T22:15:28.084Z,59.10
2018-06-20T22:20:33.972Z,58.90
2018-06-20T22:23:08.023Z,59.00
2018-06-20T22:25:41.745Z,59.00
2018-06-20T22:28:16.137Z,59.10
2018-06-20T22:30:50.127Z,59.20
2018-06-20T22:33:23.886Z,59.20
2018-06-20T22:35:57.533Z,59.30
2018-06-20T22:38:32.213Z,59.90
2018-06-20T22:41:06.037Z,59.30
2018-06-20T22:43:40.204Z,59.30
2018-06-20T22:46:14.405Z,59.30
2018-06-20T22:48:48.443Z,59.30
2018-06-20T22:51:22.786Z,59.30
2018-06-20T22:56:29.813Z,59.40
2018-06-20T22:59:04.196Z,59.40
2018-06-20T23:01:37.912Z,59.50
2018-06-20T23:06:44.202Z,59.90
2018-06-20T23:09:18.007Z,60.00
2018-06-20T23:11:53.914Z,59.70
2018-06-20T23:14:28.145Z,59.90
2018-06-20T23:17:02.274Z,59.90
2018-06-20T23:19:36.051Z,59.80
2018-06-20T23:22:09.860Z,59.80
2018-06-20T23:24:43.774Z,59.90
2018-06-20T23:27:17.923Z,60.00
2018-06-20T23:29:51.868Z,60.00
2018-06-20T23:32:25.775Z,60.10
2018-06-20T23:34:59.860Z,60.10
2018-06-20T23:40:05.969Z,60.70
2018-06-20T23:42:42.271Z,59.80
2018-06-20T23:45:16.371Z,59.80
2018-06-20T23:47:50.311Z,59.80
2018-06-20T23:52:56.292Z,60.20
2018-06-20T23:55:30.435Z,60.20
2018-06-20T23:58:04.298Z,60.30
